Tupelo, MS (38804)

6:36 AM CDT on May 22, 2015 (GMT -0500)
Lee Acres | | Change Station
CLOSE
Current Station
Personal Weather Station
Location: Tupelo, MS
Elevation: 340 ft
Nearby Weather Stations

Elev 340 ft 34.24 °N, 88.72 °W | Updated 19 seconds ago

Clear
Clear
47.0 °F
Feels Like 47 °F
N
2.0
Wind Variable Wind from NNW
Gusts 3.0 mph

Today
High -- | Low -- °F
--% Chance of Precip.
Yesterday
High -- | Low -- °F
Precip. -- in
5:48 AM 7:54 PM
Waxing Crescent, 20% visible
Pressure 30.25 in
Visibility 7.0 miles
Clouds Clear
Windchill 47 °F
Dew Point 46 °F
Humidity 97%
Rainfall 0.00 in
Snow Depth Not available.
UV 0 out of 12
Pollen 5.90 out of 12
Air Quality Not available.
Flu Activity No Activity
METAR KTUP 221053Z 00000KT 7SM CLR 08/07 A3025 RMK AO2 SLP242 T00830067

More Conditions Fewer Conditions

Pressure 30.25 in
Visibility 7.0 miles
Clouds Clear
Windchill 47 °F
Dew Point 46 °F
Humidity 97%
Rainfall 0.00 in
Snow Depth Not available.
UV 0 out of 12
Pollen 5.90 out of 12
Air Quality Not available.
Flu Activity No Activity
METAR KTUP 221053Z 00000KT 7SM CLR 08/07 A3025 RMK AO2 SLP242 T00830067

More Conditions Fewer Conditions

10-Day Weather Forecast

Almanac

Astronomy

May. 22, 2015 Rise Set
Actual Time
Civil Twilight
Nautical Twilight
Astronomical Twilight
Moon
Length of Visible Light
Length of Day
Tomorrow will be .
, % of the Moon is Illuminated

Today's Extremes

State Highs State Lows

Community

WunderPhotos

Upload Photos

1,823,206 photos uploaded!

WunderBlogs® & News

Nearby

Air Quality

  Air Quality AQ Index Pollutant
Not available.

Snow Depth

Station Depth Elevation

Earthquake Activity

City Distance Mag. Time & Date
Minimum magnitude displayed is 2.5.

Coastal Water Temperatures

Place Temperature

Stations

Nearby Weather Stations

Station Location Temp. Windchill Dew Point Humidity Wind Precip. Elev Updated Type